createdAt,value
2023-02-13T00:01:37.081Z,11.23
2023-02-13T00:04:23.410Z,11.27
2023-02-13T00:07:11.843Z,9.40
2023-02-13T00:09:58.336Z,10.27
2023-02-13T00:12:44.734Z,10.13
2023-02-13T00:15:31.090Z,9.17
2023-02-13T00:18:17.606Z,10.30
2023-02-13T00:21:10.087Z,9.80
2023-02-13T00:23:56.811Z,9.27
2023-02-13T00:26:43.215Z,11.20
2023-02-13T00:29:29.336Z,11.10
2023-02-13T00:32:15.828Z,10.80
2023-02-13T00:35:02.263Z,13.03
2023-02-13T00:37:50.010Z,12.70
2023-02-13T00:40:36.629Z,11.97
2023-02-13T00:43:23.140Z,11.30
2023-02-13T00:46:09.686Z,11.03
2023-02-13T00:48:56.285Z,10.87
2023-02-13T00:51:42.609Z,9.63
2023-02-13T00:54:28.711Z,11.07
2023-02-13T00:57:15.081Z,11.60
2023-02-13T01:00:02.548Z,12.80
2023-02-13T01:02:48.861Z,11.20
2023-02-13T01:05:35.216Z,11.23
2023-02-13T01:08:22.589Z,12.57
2023-02-13T01:11:09.140Z,12.83
2023-02-13T01:13:55.428Z,11.83
2023-02-13T01:16:41.615Z,12.07
2023-02-13T01:19:28.090Z,12.77
2023-02-13T01:22:14.355Z,10.77
2023-02-13T01:25:00.560Z,11.93
2023-02-13T01:27:50.697Z,11.37
2023-02-13T01:30:37.016Z,11.10
2023-02-13T01:33:24.550Z,11.30
2023-02-13T01:36:12.480Z,12.53
2023-02-13T01:38:59.147Z,11.27
2023-02-13T01:41:45.769Z,12.93
2023-02-13T01:44:50.788Z,11.30
2023-02-13T01:47:45.278Z,11.20
2023-02-13T01:50:33.713Z,10.93
2023-02-13T01:53:29.666Z,12.17
2023-02-13T01:56:28.821Z,11.37
2023-02-13T01:59:29.319Z,10.70
2023-02-13T02:02:17.817Z,10.67
2023-02-13T02:05:06.429Z,10.87
2023-02-13T02:07:54.651Z,10.23
2023-02-13T02:10:43.475Z,11.47
2023-02-13T02:13:30.064Z,9.80
2023-02-13T02:16:23.173Z,10.10
2023-02-13T02:19:20.474Z,10.23
2023-02-13T02:22:25.106Z,11.00
2023-02-13T02:25:23.798Z,10.90
2023-02-13T02:28:40.005Z,13.67
2023-02-13T02:31:45.354Z,9.67
2023-02-13T02:38:26.868Z,10.97
2023-02-13T02:41:39.347Z,11.47
2023-02-13T02:44:28.921Z,10.83
2023-02-13T02:47:34.190Z,12.97
2023-02-13T02:50:34.327Z,11.70
2023-02-13T02:53:44.411Z,11.63
2023-02-13T02:56:44.087Z,10.43
2023-02-13T02:59:51.354Z,10.93
2023-02-13T03:02:56.566Z,10.50
2023-02-13T03:06:05.088Z,11.43
2023-02-13T03:09:14.882Z,12.03
2023-02-13T03:12:20.873Z,10.60
2023-02-13T03:15:08.436Z,10.50
2023-02-13T03:18:13.955Z,11.90
2023-02-13T03:21:52.743Z,11.17
2023-02-13T03:25:07.864Z,10.23
2023-02-13T03:28:19.292Z,11.03
2023-02-13T03:31:11.930Z,9.43
2023-02-13T03:34:17.116Z,10.93
2023-02-13T03:37:28.510Z,10.93
2023-02-13T03:40:22.702Z,11.13
2023-02-13T03:43:13.350Z,11.00
2023-02-13T03:46:02.497Z,13.77
2023-02-13T03:49:07.311Z,11.60
2023-02-13T03:51:59.744Z,11.43
2023-02-13T03:55:10.431Z,15.30
2023-02-13T03:58:21.929Z,13.30
2023-02-13T04:01:12.174Z,12.87
2023-02-13T04:04:03.710Z,14.50
2023-02-13T04:07:01.356Z,13.00
2023-02-13T04:09:47.846Z,13.33
2023-02-13T04:13:03.123Z,11.47
2023-02-13T04:16:03.069Z,13.27
2023-02-13T04:18:52.260Z,11.33
2023-02-13T04:21:42.647Z,10.83
2023-02-13T04:24:29.350Z,11.47
2023-02-13T04:27:16.946Z,13.07
2023-02-13T04:30:03.988Z,12.50
2023-02-13T04:32:51.764Z,12.67
2023-02-13T04:35:38.548Z,11.27
2023-02-13T04:38:24.819Z,13.90
2023-02-13T04:41:11.137Z,13.40
2023-02-13T04:43:57.778Z,12.17
2023-02-13T04:46:44.343Z,11.47
2023-02-13T04:49:30.573Z,10.90
2023-02-13T04:52:17.211Z,10.47
2023-02-13T04:55:04.035Z,11.30
2023-02-13T04:57:53.824Z,11.97
2023-02-13T05:00:40.535Z,12.73
2023-02-13T05:03:27.233Z,9.63
2023-02-13T05:06:13.537Z,9.73
2023-02-13T05:08:59.807Z,9.97
2023-02-13T05:11:46.184Z,8.50
2023-02-13T05:14:32.723Z,8.27
2023-02-13T05:17:18.979Z,8.77
2023-02-13T05:20:06.598Z,8.80
2023-02-13T05:23:13.364Z,9.17
2023-02-13T05:25:59.698Z,9.67
2023-02-13T05:29:04.638Z,10.27
2023-02-13T05:31:53.549Z,7.93
2023-02-13T05:34:39.889Z,8.60
2023-02-13T05:37:26.227Z,9.97
2023-02-13T05:40:13.430Z,10.07
2023-02-13T05:42:59.917Z,8.90
2023-02-13T05:45:46.310Z,9.40
2023-02-13T05:48:33.348Z,7.37
2023-02-13T05:51:20.547Z,7.90
2023-02-13T05:54:06.878Z,8.17
2023-02-13T05:56:53.361Z,9.73
2023-02-13T05:59:39.729Z,8.97
2023-02-13T06:02:26.119Z,8.47
2023-02-13T06:05:12.736Z,9.20
2023-02-13T06:07:59.288Z,8.43
2023-02-13T06:10:49.256Z,7.53
2023-02-13T06:13:35.860Z,7.60
2023-02-13T06:16:22.729Z,8.23
2023-02-13T06:19:09.401Z,7.73
2023-02-13T06:21:56.133Z,7.50
2023-02-13T06:24:42.746Z,8.00
2023-02-13T06:27:28.872Z,11.13
2023-02-13T06:30:16.392Z,8.60
2023-02-13T06:33:02.983Z,7.40
2023-02-13T06:35:49.548Z,8.77
2023-02-13T06:38:35.843Z,8.13
2023-02-13T06:41:22.332Z,9.00
2023-02-13T06:44:08.637Z,9.50
2023-02-13T06:46:54.840Z,8.23
2023-02-13T06:49:41.281Z,7.03
2023-02-13T06:52:30.252Z,8.77
2023-02-13T06:55:17.241Z,6.77
2023-02-13T06:58:03.561Z,7.57
2023-02-13T07:00:51.615Z,8.20
2023-02-13T07:03:37.902Z,8.03
2023-02-13T07:06:24.547Z,7.47
2023-02-13T07:09:13.339Z,7.80
2023-02-13T07:12:03.261Z,7.90
2023-02-13T07:14:49.559Z,8.10
2023-02-13T07:17:36.200Z,7.40
2023-02-13T07:20:22.440Z,7.73
2023-02-13T07:23:08.640Z,7.47
2023-02-13T07:25:54.993Z,8.00
2023-02-13T07:28:41.125Z,7.90
2023-02-13T07:31:27.534Z,7.00
2023-02-13T07:34:14.364Z,8.07
2023-02-13T07:37:00.728Z,7.43
2023-02-13T07:39:47.030Z,7.37
2023-02-13T07:42:34.915Z,8.83
2023-02-13T07:45:21.298Z,8.03
2023-02-13T07:48:07.617Z,8.53
2023-02-13T07:50:54.990Z,8.03
2023-02-13T07:53:41.499Z,7.63
2023-02-13T07:56:28.164Z,8.00
2023-02-13T07:59:14.394Z,8.03
2023-02-13T08:02:00.930Z,8.17
2023-02-13T08:04:47.497Z,9.17
2023-02-13T08:07:34.936Z,8.63
2023-02-13T08:10:40.150Z,8.67
2023-02-13T08:13:27.208Z,8.53
2023-02-13T08:16:13.692Z,7.97
2023-02-13T08:19:00.066Z,8.60
2023-02-13T08:21:46.641Z,6.67
2023-02-13T08:24:33.328Z,8.03
2023-02-13T08:27:19.928Z,7.40
2023-02-13T08:30:07.593Z,7.90
2023-02-13T08:32:54.668Z,8.60
2023-02-13T08:35:40.903Z,9.40
2023-02-13T08:38:27.133Z,9.27
2023-02-13T08:41:14.075Z,8.67
2023-02-13T08:44:00.183Z,9.23
2023-02-13T08:46:46.375Z,9.77
2023-02-13T08:49:33.848Z,8.43
2023-02-13T08:52:20.416Z,8.67
2023-02-13T08:55:06.944Z,8.60
2023-02-13T08:57:53.243Z,7.43
2023-02-13T09:00:39.481Z,7.73
2023-02-13T09:03:26.021Z,8.47
2023-02-13T09:06:12.717Z,8.37
2023-02-13T09:08:59.077Z,8.80
2023-02-13T09:11:45.428Z,7.47
2023-02-13T09:14:31.918Z,8.37
2023-02-13T09:17:19.678Z,8.60
2023-02-13T09:20:06.868Z,9.30
2023-02-13T09:22:54.927Z,9.80
2023-02-13T09:25:41.621Z,10.50
2023-02-13T09:28:29.766Z,9.83
2023-02-13T09:31:19.197Z,10.00
2023-02-13T09:34:05.849Z,9.57
2023-02-13T09:36:53.368Z,10.20
2023-02-13T09:39:39.721Z,9.83
2023-02-13T09:42:31.416Z,10.83
2023-02-13T09:45:21.506Z,12.63
2023-02-13T09:48:15.629Z,11.77
2023-02-13T09:51:02.289Z,12.03
2023-02-13T09:54:02.358Z,12.40
2023-02-13T09:57:00.387Z,12.00
2023-02-13T09:59:57.123Z,11.50
2023-02-13T10:02:58.975Z,11.67
2023-02-13T10:05:59.908Z,12.20
2023-02-13T10:09:13.318Z,12.87
2023-02-13T10:12:29.991Z,12.23
2023-02-13T10:15:16.454Z,12.70
2023-02-13T10:18:10.662Z,11.43
2023-02-13T10:21:02.263Z,11.87
2023-02-13T10:23:57.253Z,11.33
2023-02-13T10:26:46.904Z,11.20
2023-02-13T10:30:02.590Z,11.33
2023-02-13T10:33:19.054Z,10.77
2023-02-13T10:36:27.942Z,9.47
2023-02-13T10:39:24.261Z,9.57
2023-02-13T10:42:27.689Z,10.97
2023-02-13T10:45:20.671Z,9.83
2023-02-13T10:48:44.726Z,10.10
2023-02-13T10:51:49.681Z,10.03
2023-02-13T10:55:01.532Z,9.20
2023-02-13T10:58:03.982Z,10.53
2023-02-13T11:00:56.684Z,9.43
2023-02-13T11:03:42.973Z,8.90
2023-02-13T11:06:30.182Z,9.80
2023-02-13T11:09:16.891Z,9.10
2023-02-13T11:12:30.273Z,8.33
2023-02-13T11:15:29.364Z,9.17
2023-02-13T11:18:21.053Z,8.30
2023-02-13T11:21:19.103Z,10.43
2023-02-13T11:24:05.847Z,9.30
2023-02-13T11:27:02.708Z,9.43
2023-02-13T11:29:55.010Z,8.40
2023-02-13T11:32:41.607Z,9.13
2023-02-13T11:35:28.265Z,8.40
2023-02-13T11:38:20.660Z,7.97
2023-02-13T11:41:12.958Z,7.70
2023-02-13T11:44:04.727Z,9.27
2023-02-13T11:46:53.614Z,6.93
2023-02-13T11:49:46.109Z,7.73
2023-02-13T11:52:35.948Z,7.27
2023-02-13T11:55:34.327Z,7.90
2023-02-13T11:58:27.791Z,7.90
2023-02-13T12:01:20.072Z,7.20
2023-02-13T12:04:17.840Z,6.10
2023-02-13T12:07:15.969Z,6.37
2023-02-13T12:10:06.207Z,7.83
2023-02-13T12:13:11.144Z,6.27
2023-02-13T12:16:05.724Z,6.87
2023-02-13T12:18:55.838Z,6.60
2023-02-13T12:22:15.527Z,5.23
2023-02-13T12:25:14.091Z,7.00
2023-02-13T12:28:45.221Z,6.47
2023-02-13T12:31:58.236Z,6.20
2023-02-13T12:34:54.000Z,6.07
2023-02-13T12:37:59.236Z,6.23
2023-02-13T12:41:04.651Z,6.03
2023-02-13T12:44:10.300Z,5.30
2023-02-13T12:47:17.771Z,5.33
2023-02-13T12:50:22.412Z,6.07
2023-02-13T12:53:21.803Z,6.00
2023-02-13T12:56:21.743Z,5.93
2023-02-13T12:59:43.476Z,6.00
2023-02-13T13:02:56.393Z,5.33
2023-02-13T13:05:58.751Z,6.17
2023-02-13T13:09:19.338Z,4.90
2023-02-13T13:12:45.269Z,4.97
2023-02-13T13:15:48.128Z,4.90
2023-02-13T13:18:49.427Z,5.20
2023-02-13T13:21:48.042Z,5.27
2023-02-13T13:24:48.778Z,4.77
2023-02-13T13:27:44.233Z,5.47
2023-02-13T13:30:36.021Z,4.60
2023-02-13T13:33:25.244Z,5.67
2023-02-13T13:36:30.312Z,5.13
2023-02-13T13:39:35.362Z,5.30
2023-02-13T13:42:24.881Z,5.00
2023-02-13T13:45:33.114Z,5.13
2023-02-13T13:48:47.189Z,5.73
2023-02-13T13:51:34.034Z,6.13
2023-02-13T13:54:25.593Z,5.67
2023-02-13T13:57:12.982Z,5.97
2023-02-13T14:00:24.674Z,6.60
2023-02-13T14:03:33.321Z,6.03
2023-02-13T14:06:25.238Z,5.53
2023-02-13T14:09:27.249Z,5.73
2023-02-13T14:12:29.182Z,5.33
2023-02-13T14:15:33.996Z,5.93
2023-02-13T14:18:23.681Z,5.43
2023-02-13T14:21:10.129Z,6.17
2023-02-13T14:24:00.763Z,6.70
2023-02-13T14:27:04.711Z,5.53
2023-02-13T14:29:52.220Z,5.93
2023-02-13T14:32:41.111Z,5.37
2023-02-13T14:35:31.118Z,6.73
2023-02-13T14:38:24.665Z,7.17
2023-02-13T14:41:42.410Z,7.97
2023-02-13T14:44:29.327Z,5.63
2023-02-13T14:47:29.656Z,6.10
2023-02-13T14:50:21.929Z,5.70
2023-02-13T14:53:18.893Z,5.20
2023-02-13T14:56:11.740Z,5.23
2023-02-13T14:59:10.262Z,5.30
2023-02-13T15:02:07.540Z,5.10
2023-02-13T15:04:59.754Z,6.37
2023-02-13T15:08:08.568Z,6.80
2023-02-13T15:10:56.166Z,4.77
2023-02-13T15:13:42.827Z,4.70
2023-02-13T15:16:30.196Z,5.30
2023-02-13T15:19:18.601Z,4.77
2023-02-13T15:22:06.550Z,4.77
2023-02-13T15:24:53.086Z,4.60
2023-02-13T15:27:44.330Z,4.60
2023-02-13T15:30:36.303Z,4.93
2023-02-13T15:33:24.798Z,3.73
2023-02-13T15:36:25.354Z,3.50
2023-02-13T15:39:18.556Z,3.93
2023-02-13T15:42:05.144Z,4.17
2023-02-13T15:44:56.973Z,4.20
2023-02-13T15:47:45.498Z,4.90
2023-02-13T15:50:35.877Z,3.90
2023-02-13T15:53:22.605Z,4.20
2023-02-13T15:56:14.853Z,4.60
2023-02-13T15:59:02.793Z,4.97
2023-02-13T16:01:51.802Z,4.00
2023-02-13T16:04:40.140Z,5.03
2023-02-13T16:07:26.587Z,4.27
2023-02-13T16:10:34.630Z,3.97
2023-02-13T16:13:21.002Z,4.90
2023-02-13T16:16:11.072Z,4.73
2023-02-13T16:18:57.767Z,5.37
2023-02-13T16:21:48.465Z,5.90
2023-02-13T16:24:36.350Z,5.37
2023-02-13T16:27:27.457Z,5.57
2023-02-13T16:30:23.483Z,4.80
2023-02-13T16:33:15.748Z,5.70
2023-02-13T16:36:11.421Z,5.20
2023-02-13T16:38:57.853Z,4.90
2023-02-13T16:41:44.176Z,6.00
2023-02-13T16:44:32.530Z,5.10
2023-02-13T16:47:25.220Z,4.90
2023-02-13T16:50:16.294Z,7.50
2023-02-13T16:53:04.074Z,4.90
2023-02-13T16:56:01.257Z,4.97
2023-02-13T16:58:47.973Z,6.20
2023-02-13T17:01:38.277Z,6.50
2023-02-13T17:04:25.213Z,7.10
2023-02-13T17:07:14.027Z,5.93
2023-02-13T17:10:06.753Z,5.90
2023-02-13T17:12:55.178Z,6.70
2023-02-13T17:15:43.940Z,7.63
2023-02-13T17:18:30.475Z,6.27
2023-02-13T17:21:16.780Z,8.33
2023-02-13T17:24:03.810Z,7.00
2023-02-13T17:26:50.350Z,7.30
2023-02-13T17:29:37.105Z,7.03
2023-02-13T17:32:26.113Z,5.50
2023-02-13T17:35:14.132Z,6.70
2023-02-13T17:38:00.768Z,7.23
2023-02-13T17:40:47.560Z,5.73
2023-02-13T17:43:33.917Z,6.43
2023-02-13T17:46:20.256Z,7.43
2023-02-13T17:49:06.763Z,6.57
2023-02-13T17:51:53.029Z,7.37
2023-02-13T17:54:39.146Z,6.83
2023-02-13T17:57:25.708Z,7.13
2023-02-13T18:00:12.223Z,6.23
2023-02-13T18:03:00.587Z,6.03
2023-02-13T18:05:48.830Z,7.47
2023-02-13T18:08:35.112Z,6.90
2023-02-13T18:11:21.305Z,6.20
2023-02-13T18:14:07.817Z,6.00
2023-02-13T18:16:54.020Z,6.43
2023-02-13T18:19:40.710Z,5.97
2023-02-13T18:22:27.209Z,6.57
2023-02-13T18:25:13.952Z,5.93
2023-02-13T18:28:00.122Z,8.30
2023-02-13T18:30:46.831Z,6.63
2023-02-13T18:33:33.216Z,6.43
2023-02-13T18:36:19.712Z,6.30
2023-02-13T18:39:07.953Z,7.40
2023-02-13T18:41:54.381Z,8.60
2023-02-13T18:44:41.225Z,6.80
2023-02-13T18:47:27.750Z,6.93
2023-02-13T18:50:14.428Z,7.43
2023-02-13T18:53:00.896Z,7.83
2023-02-13T18:55:47.443Z,6.63
2023-02-13T18:58:34.493Z,8.10
2023-02-13T19:01:21.755Z,7.93
2023-02-13T19:04:08.202Z,8.13
2023-02-13T19:06:54.732Z,7.80
2023-02-13T19:09:41.073Z,7.33
2023-02-13T19:12:27.315Z,7.77
2023-02-13T19:15:13.957Z,8.03
2023-02-13T19:18:00.118Z,9.47
2023-02-13T19:20:46.583Z,8.13
2023-02-13T19:23:34.005Z,8.93
2023-02-13T19:26:25.724Z,8.13
2023-02-13T19:29:12.192Z,8.60
2023-02-13T19:31:58.501Z,7.63
2023-02-13T19:34:45.878Z,8.03
2023-02-13T19:37:43.017Z,8.33
2023-02-13T19:40:30.454Z,7.83
2023-02-13T19:43:16.548Z,7.77
2023-02-13T19:46:05.033Z,9.40
2023-02-13T19:48:51.810Z,7.53
2023-02-13T19:51:38.506Z,7.37
2023-02-13T19:54:25.333Z,8.87
2023-02-13T19:57:12.057Z,8.70
2023-02-13T20:00:01.708Z,9.03
2023-02-13T20:03:03.746Z,7.13
2023-02-13T20:05:50.078Z,7.73
2023-02-13T20:08:36.785Z,9.33
2023-02-13T20:11:23.088Z,11.10
2023-02-13T20:14:14.462Z,10.23
2023-02-13T20:17:01.206Z,10.33
2023-02-13T20:19:47.616Z,9.73
2023-02-13T20:22:34.038Z,10.53
2023-02-13T20:25:22.013Z,9.17
2023-02-13T20:28:11.210Z,8.37
2023-02-13T20:30:58.166Z,7.33
2023-02-13T20:33:46.118Z,9.07
2023-02-13T20:36:33.446Z,9.67
2023-02-13T20:39:19.640Z,7.97
2023-02-13T20:42:06.592Z,8.47
2023-02-13T20:44:53.402Z,8.90
2023-02-13T20:47:41.766Z,9.00
2023-02-13T20:50:27.934Z,7.50
2023-02-13T20:53:14.267Z,9.33
2023-02-13T20:56:13.448Z,9.70
2023-02-13T20:59:00.613Z,9.63
2023-02-13T21:01:46.963Z,9.13
2023-02-13T21:04:34.225Z,9.67
2023-02-13T21:07:20.373Z,9.70
2023-02-13T21:10:07.141Z,10.23
2023-02-13T21:12:53.628Z,9.30
2023-02-13T21:15:40.027Z,9.97
2023-02-13T21:18:26.276Z,9.20
2023-02-13T21:21:13.531Z,10.00
2023-02-13T21:24:06.933Z,9.20
2023-02-13T21:26:54.127Z,10.40
2023-02-13T21:29:40.510Z,8.90
2023-02-13T21:32:26.769Z,10.23
2023-02-13T21:35:13.022Z,10.37
2023-02-13T21:37:59.412Z,11.43
2023-02-13T21:40:45.845Z,9.40
2023-02-13T21:43:37.506Z,9.60
2023-02-13T21:46:32.332Z,9.20
2023-02-13T21:49:19.123Z,9.63
2023-02-13T21:52:05.443Z,10.03
2023-02-13T21:54:51.617Z,9.90
2023-02-13T21:57:38.512Z,9.33
2023-02-13T22:00:25.120Z,11.83
2023-02-13T22:03:11.667Z,10.40
2023-02-13T22:05:57.973Z,10.53
2023-02-13T22:08:44.320Z,10.03
2023-02-13T22:11:31.870Z,9.73
2023-02-13T22:14:18.273Z,10.60
2023-02-13T22:17:04.981Z,10.37
2023-02-13T22:19:51.561Z,10.40
2023-02-13T22:22:37.803Z,10.00
2023-02-13T22:25:24.407Z,10.93
2023-02-13T22:28:10.961Z,11.47
2023-02-13T22:30:57.688Z,10.90
2023-02-13T22:33:47.606Z,12.40
2023-02-13T22:36:40.478Z,12.57
2023-02-13T22:39:26.945Z,10.13
2023-02-13T22:42:14.095Z,11.27
2023-02-13T22:45:00.645Z,12.23
2023-02-13T22:47:46.805Z,11.37
2023-02-13T22:50:34.180Z,11.13
2023-02-13T22:53:20.807Z,11.20
2023-02-13T22:56:08.253Z,10.30
2023-02-13T22:58:54.797Z,11.43
2023-02-13T23:01:41.043Z,10.70
2023-02-13T23:04:27.517Z,12.27
2023-02-13T23:07:18.150Z,10.13
2023-02-13T23:10:04.888Z,12.63
2023-02-13T23:12:51.277Z,11.27
2023-02-13T23:15:38.174Z,11.97
2023-02-13T23:18:24.788Z,11.73
2023-02-13T23:21:11.126Z,11.67
2023-02-13T23:23:57.866Z,13.20
2023-02-13T23:26:44.172Z,12.47
2023-02-13T23:29:30.409Z,11.77
2023-02-13T23:32:17.028Z,12.40
2023-02-13T23:35:03.243Z,12.17
2023-02-13T23:37:49.674Z,11.67
2023-02-13T23:40:35.952Z,12.37
2023-02-13T23:43:22.204Z,12.87
2023-02-13T23:46:08.639Z,12.77
2023-02-13T23:48:55.045Z,12.00
2023-02-13T23:51:41.423Z,13.30
2023-02-13T23:54:28.227Z,13.53
2023-02-13T23:57:14.424Z,12.37
